logo
Search for airport 
image banner adimage banner adimage banner ad
image banner ad

WIHP - South Tangerang / Pondok Cabe

Located in South Tangerang, Indonesia

ICAO - WIHP, IATA - PCB

Data provided by Airmate  

General information

Coordinates: S6°20'10" E106°45'53"
Elevation is 221 feet MSL.
 
View others Airports in Jakarta Raya

Operational data

Special qualification required
Current time UTC:
Current local time:
Weather at : WIHH - Jakarta/Halim Perdanakusuma ( 15 km )
METAR: WIHH 170630Z 01005KT 6000 SCT018 33/24 Q1007 RMK RA TO E METAR
TAF: TAF WIHH 170500Z 1706/1806 12008KT 6000 SCT020 TEMPO 1706/1709 4000 -RA BKN018 BECMG 1711/1713 21005KT BECMG 1720/1722 00000KT 5000 HZ FEW020
View NOTAMs / SUP AIP / TFR affecting this airport [VIEW]
Communications frequencies: [VIEW]

Runways:

RWY identifierQFULength (ft)Width (ft)SurfaceLDA (ft)
18184°6562148ASP
366562148ASP

Airport contact information

Address: South Tangerang Indonesia

Satellite view of WIHP